createdAt,value
2018-12-05T00:01:42.441Z,15.07
2018-12-05T00:04:10.585Z,12.63
2018-12-05T00:06:38.789Z,13.80
2018-12-05T00:09:07.468Z,11.13
2018-12-05T00:11:35.693Z,10.30
2018-12-05T00:14:04.113Z,10.27
2018-12-05T00:16:32.324Z,12.03
2018-12-05T00:19:00.473Z,12.33
2018-12-05T00:21:28.664Z,14.23
2018-12-05T00:23:56.873Z,13.40
2018-12-05T00:26:25.081Z,18.30
2018-12-05T00:28:53.302Z,16.80
2018-12-05T00:31:21.433Z,12.00
2018-12-05T00:33:49.573Z,14.37
2018-12-05T00:36:17.920Z,14.07
2018-12-05T00:38:46.134Z,13.67
2018-12-05T00:41:14.349Z,14.53
2018-12-05T00:43:42.549Z,14.07
2018-12-05T00:46:10.701Z,15.63
2018-12-05T00:48:38.921Z,14.57
2018-12-05T00:51:07.238Z,13.37
2018-12-05T00:53:35.375Z,8.60
2018-12-05T00:56:03.584Z,11.43
2018-12-05T00:58:31.738Z,11.43
2018-12-05T01:00:59.878Z,10.73
2018-12-05T01:03:28.027Z,16.20
2018-12-05T01:06:01.712Z,16.97
2018-12-05T01:08:29.866Z,13.83
2018-12-05T01:10:58.009Z,13.90
2018-12-05T01:13:26.225Z,15.53
2018-12-05T01:15:54.452Z,15.90
2018-12-05T01:18:22.593Z,16.60
2018-12-05T01:20:50.722Z,12.40
2018-12-05T01:23:18.948Z,15.97
2018-12-05T01:25:47.084Z,14.63
2018-12-05T01:28:15.656Z,11.27
2018-12-05T01:30:43.871Z,13.33
2018-12-05T01:33:12.077Z,13.17
2018-12-05T01:35:40.218Z,14.93
2018-12-05T01:38:08.369Z,21.13
2018-12-05T01:40:36.640Z,17.43
2018-12-05T01:43:04.953Z,16.03
2018-12-05T01:45:33.081Z,15.90
2018-12-05T01:48:01.228Z,16.60
2018-12-05T01:50:29.385Z,15.23
2018-12-05T01:52:57.676Z,14.70
2018-12-05T01:55:25.898Z,10.43
2018-12-05T01:57:54.041Z,11.53
2018-12-05T02:00:22.261Z,13.63
2018-12-05T02:02:50.408Z,12.77
2018-12-05T02:05:18.607Z,14.50
2018-12-05T02:07:46.906Z,12.93
2018-12-05T02:10:15.148Z,12.30
2018-12-05T02:12:43.326Z,10.77
2018-12-05T02:15:11.566Z,15.73
2018-12-05T02:17:39.748Z,15.53
2018-12-05T02:20:08.015Z,11.40
2018-12-05T02:22:36.224Z,13.83
2018-12-05T02:25:05.104Z,14.20
2018-12-05T02:27:33.314Z,17.17
2018-12-05T02:30:01.453Z,12.30
2018-12-05T02:32:29.688Z,11.73
2018-12-05T02:34:57.818Z,16.07
2018-12-05T02:37:26.108Z,17.77
2018-12-05T02:39:54.337Z,17.73
2018-12-05T02:42:22.592Z,18.97
2018-12-05T02:44:50.753Z,23.53
2018-12-05T02:47:18.949Z,20.87
2018-12-05T02:49:47.085Z,24.23
2018-12-05T02:52:15.214Z,18.27
2018-12-05T02:54:43.449Z,18.73
2018-12-05T02:57:11.569Z,14.87
2018-12-05T02:59:39.777Z,12.67
2018-12-05T03:02:07.980Z,13.90
2018-12-05T03:04:36.188Z,16.43
2018-12-05T03:07:04.471Z,18.90
2018-12-05T03:09:32.879Z,13.53
2018-12-05T03:12:01.011Z,16.47
2018-12-05T03:14:36.000Z,15.73
2018-12-05T03:17:04.249Z,14.97
2018-12-05T03:19:32.369Z,13.33
2018-12-05T03:22:00.542Z,14.43
2018-12-05T03:24:28.660Z,17.37
2018-12-05T03:26:56.839Z,13.20
2018-12-05T03:29:24.961Z,15.30
2018-12-05T03:31:53.086Z,16.60
2018-12-05T03:34:21.210Z,12.37
2018-12-05T03:36:49.329Z,16.77
2018-12-05T03:39:17.453Z,11.53
2018-12-05T03:41:45.633Z,17.13
2018-12-05T03:44:13.954Z,14.40
2018-12-05T03:46:42.244Z,14.73
2018-12-05T03:49:10.368Z,14.67
2018-12-05T03:51:38.571Z,18.67
2018-12-05T03:54:06.749Z,17.90
2018-12-05T03:56:34.945Z,15.70
2018-12-05T03:59:03.200Z,14.27
2018-12-05T04:01:31.335Z,15.30
2018-12-05T04:03:59.597Z,15.70
2018-12-05T04:06:27.893Z,13.63
2018-12-05T04:08:56.018Z,13.50
2018-12-05T04:11:30.589Z,14.97
2018-12-05T04:13:58.785Z,15.57
2018-12-05T04:16:26.923Z,14.57
2018-12-05T04:18:55.060Z,18.03
2018-12-05T04:21:23.365Z,17.03
2018-12-05T04:23:51.570Z,17.00
2018-12-05T04:26:19.709Z,15.27
2018-12-05T04:28:47.841Z,13.93
2018-12-05T04:31:16.062Z,14.87
2018-12-05T04:33:44.189Z,19.47
2018-12-05T04:36:12.361Z,20.20
2018-12-05T04:38:40.490Z,16.80
2018-12-05T04:41:08.781Z,21.63
2018-12-05T04:43:36.914Z,18.83
2018-12-05T04:46:05.201Z,19.40
2018-12-05T04:48:33.329Z,16.77
2018-12-05T04:51:01.490Z,24.70
2018-12-05T04:53:29.705Z,17.77
2018-12-05T04:55:57.854Z,16.73
2018-12-05T04:58:25.991Z,16.63
2018-12-05T05:00:54.213Z,17.83
2018-12-05T05:03:22.352Z,17.53
2018-12-05T05:05:50.508Z,20.87
2018-12-05T05:08:18.633Z,14.17
2018-12-05T05:10:46.773Z,17.20
2018-12-05T05:13:14.901Z,20.37
2018-12-05T05:15:43.131Z,22.40
2018-12-05T05:18:11.335Z,21.37
2018-12-05T05:20:39.527Z,22.13
2018-12-05T05:23:07.709Z,23.13
2018-12-05T05:25:35.901Z,17.07
2018-12-05T05:28:04.166Z,23.33
2018-12-05T05:30:32.281Z,26.63
2018-12-05T05:33:00.505Z,21.50
2018-12-05T05:35:28.677Z,22.20
2018-12-05T05:37:56.870Z,17.10
2018-12-05T05:40:24.975Z,20.23
2018-12-05T05:42:53.101Z,18.20
2018-12-05T05:45:21.295Z,17.57
2018-12-05T05:47:50.236Z,22.40
2018-12-05T05:50:18.414Z,21.90
2018-12-05T05:52:46.533Z,21.53
2018-12-05T05:55:14.646Z,21.63
2018-12-05T05:57:43.040Z,24.17
2018-12-05T06:00:11.344Z,17.40
2018-12-05T06:02:39.480Z,22.93
2018-12-05T06:05:07.729Z,26.00
2018-12-05T06:07:35.865Z,18.93
2018-12-05T06:10:04.548Z,17.23
2018-12-05T06:12:32.674Z,19.53
2018-12-05T06:15:00.857Z,22.03
2018-12-05T06:17:29.057Z,23.53
2018-12-05T06:19:57.164Z,20.00
2018-12-05T06:22:25.284Z,21.07
2018-12-05T06:24:53.473Z,26.57
2018-12-05T06:27:21.668Z,21.70
2018-12-05T06:29:49.780Z,20.77
2018-12-05T06:32:18.041Z,26.13
2018-12-05T06:34:46.145Z,26.07
2018-12-05T06:37:14.349Z,20.00
2018-12-05T06:39:42.453Z,21.37
2018-12-05T06:42:10.666Z,33.47
2018-12-05T06:44:38.906Z,19.83
2018-12-05T06:47:07.017Z,26.40
2018-12-05T06:49:35.133Z,23.60
2018-12-05T06:52:03.329Z,20.73
2018-12-05T06:54:31.576Z,23.37
2018-12-05T06:56:59.852Z,26.03
2018-12-05T06:59:27.972Z,25.57
2018-12-05T07:01:56.156Z,22.97
2018-12-05T07:04:24.353Z,18.80
2018-12-05T07:06:52.465Z,27.33
2018-12-05T07:09:20.581Z,23.53
2018-12-05T07:11:48.741Z,22.30
2018-12-05T07:14:16.969Z,18.03
2018-12-05T07:16:45.090Z,19.10
2018-12-05T07:19:13.239Z,23.27
2018-12-05T07:21:41.370Z,21.07
2018-12-05T07:24:09.517Z,19.20
2018-12-05T07:26:37.640Z,22.67
2018-12-05T07:29:05.905Z,19.93
2018-12-05T07:31:34.116Z,19.10
2018-12-05T07:34:02.257Z,22.73
2018-12-05T07:36:30.381Z,21.20
2018-12-05T07:38:58.677Z,21.90
2018-12-05T07:41:26.805Z,21.27
2018-12-05T07:43:54.933Z,16.93
2018-12-05T07:46:23.083Z,18.90
2018-12-05T07:48:51.321Z,24.43
2018-12-05T07:51:19.450Z,20.87
2018-12-05T07:53:47.584Z,19.70
2018-12-05T07:56:15.732Z,22.60
2018-12-05T07:58:43.870Z,22.13
2018-12-05T08:01:12.144Z,22.03
2018-12-05T08:03:40.456Z,17.83
2018-12-05T08:06:08.728Z,19.30
2018-12-05T08:08:36.876Z,22.67
2018-12-05T08:11:05.163Z,23.67
2018-12-05T08:13:33.285Z,23.07
2018-12-05T08:16:01.464Z,23.23
2018-12-05T08:18:29.652Z,20.27
2018-12-05T08:20:57.769Z,21.30
2018-12-05T08:23:26.048Z,20.20
2018-12-05T08:25:54.225Z,20.67
2018-12-05T08:28:22.339Z,21.90
2018-12-05T08:30:50.464Z,19.80
2018-12-05T08:33:18.644Z,17.53
2018-12-05T08:35:46.846Z,20.07
2018-12-05T08:38:14.965Z,15.20
2018-12-05T08:40:43.084Z,16.27
2018-12-05T08:43:11.252Z,12.70
2018-12-05T08:45:39.470Z,15.07
2018-12-05T08:48:07.689Z,14.03
2018-12-05T08:50:35.872Z,11.73
2018-12-05T08:53:04.122Z,11.33
2018-12-05T08:55:32.233Z,14.53
2018-12-05T08:58:00.409Z,12.83
2018-12-05T09:00:28.661Z,9.57
2018-12-05T09:02:56.772Z,14.07
2018-12-05T09:05:24.976Z,10.37
2018-12-05T09:07:53.212Z,12.03
2018-12-05T09:10:21.353Z,10.33
2018-12-05T09:12:49.445Z,11.77
2018-12-05T09:15:17.698Z,10.30
2018-12-05T09:17:45.801Z,8.63
2018-12-05T09:20:13.983Z,9.83
2018-12-05T09:22:42.157Z,11.00
2018-12-05T09:25:10.410Z,8.87
2018-12-05T09:27:38.621Z,10.77
2018-12-05T09:30:06.837Z,11.47
2018-12-05T09:32:34.960Z,11.53
2018-12-05T09:35:03.173Z,13.47
2018-12-05T09:37:31.361Z,10.53
2018-12-05T09:39:59.477Z,12.57
2018-12-05T09:42:27.648Z,11.17
2018-12-05T09:44:55.865Z,11.17
2018-12-05T09:47:24.098Z,9.67
2018-12-05T09:49:52.209Z,11.03
2018-12-05T09:52:20.389Z,10.47
2018-12-05T09:54:48.494Z,8.30
2018-12-05T09:57:16.610Z,11.03
2018-12-05T09:59:44.781Z,9.93
2018-12-05T10:02:12.976Z,9.47
2018-12-05T10:04:41.084Z,10.57
2018-12-05T10:07:09.271Z,9.30
2018-12-05T10:09:37.527Z,10.43
2018-12-05T10:12:05.759Z,9.20
2018-12-05T10:14:33.966Z,12.27
2018-12-05T10:17:02.197Z,10.67
2018-12-05T10:19:30.326Z,9.87
2018-12-05T10:21:58.519Z,9.53
2018-12-05T10:24:26.629Z,10.57
2018-12-05T10:26:54.844Z,9.93
2018-12-05T10:29:22.944Z,9.70
2018-12-05T10:31:51.150Z,8.80
2018-12-05T10:34:19.325Z,7.50
2018-12-05T10:36:47.541Z,9.03
2018-12-05T10:39:15.653Z,9.03
2018-12-05T10:41:43.784Z,8.17
2018-12-05T10:44:11.978Z,13.10
2018-12-05T10:46:40.169Z,9.90
2018-12-05T10:49:08.364Z,8.63
2018-12-05T10:51:36.573Z,9.00
2018-12-05T10:54:04.885Z,8.07
2018-12-05T10:56:33.013Z,9.67
2018-12-05T10:59:01.264Z,9.20
2018-12-05T11:01:35.080Z,8.97
2018-12-05T11:04:07.525Z,7.67
2018-12-05T11:06:41.175Z,8.87
2018-12-05T11:09:14.812Z,8.67
2018-12-05T11:12:51.221Z,9.10
2018-12-05T11:15:24.959Z,9.97
2018-12-05T11:17:58.629Z,9.50
2018-12-05T11:20:32.189Z,9.10
2018-12-05T11:24:06.703Z,10.93
2018-12-05T11:26:37.070Z,11.37
2018-12-05T11:29:05.371Z,11.00
2018-12-05T11:31:33.512Z,10.03
2018-12-05T11:34:01.853Z,8.23
2018-12-05T11:36:30.024Z,6.77
2018-12-05T11:38:58.221Z,10.17
2018-12-05T11:41:26.400Z,7.57
2018-12-05T11:43:54.524Z,8.17
2018-12-05T11:46:22.871Z,8.80
2018-12-05T11:48:51.160Z,8.53
2018-12-05T11:51:19.276Z,10.53
2018-12-05T11:53:47.393Z,9.97
2018-12-05T11:56:15.496Z,7.13
2018-12-05T11:58:43.629Z,8.27
2018-12-05T12:01:11.749Z,8.50
2018-12-05T12:03:40.021Z,9.60
2018-12-05T12:06:08.267Z,7.33
2018-12-05T12:08:36.522Z,9.73
2018-12-05T12:11:05.448Z,9.07
2018-12-05T12:13:33.884Z,8.47
2018-12-05T12:16:02.133Z,7.40
2018-12-05T12:18:30.314Z,12.17
2018-12-05T12:20:58.574Z,10.40
2018-12-05T12:23:26.690Z,8.50
2018-12-05T12:25:54.817Z,11.73
2018-12-05T12:28:23.065Z,10.70
2018-12-05T12:30:51.282Z,9.57
2018-12-05T12:33:19.469Z,8.40
2018-12-05T12:35:47.649Z,7.57
2018-12-05T12:38:15.768Z,6.90
2018-12-05T12:40:43.951Z,6.23
2018-12-05T12:43:12.061Z,7.57
2018-12-05T12:45:40.268Z,6.97
2018-12-05T12:48:08.452Z,9.47
2018-12-05T12:50:37.050Z,7.77
2018-12-05T12:53:05.361Z,8.07
2018-12-05T12:55:33.521Z,6.07
2018-12-05T12:58:01.653Z,7.33
2018-12-05T13:00:29.769Z,9.83
2018-12-05T13:02:57.973Z,10.27
2018-12-05T13:05:26.111Z,9.47
2018-12-05T13:07:54.303Z,8.13
2018-12-05T13:10:22.605Z,6.80
2018-12-05T13:12:54.093Z,8.37
2018-12-05T13:15:23.019Z,10.47
2018-12-05T13:17:51.137Z,9.50
2018-12-05T13:20:19.304Z,9.30
2018-12-05T13:22:47.540Z,10.03
2018-12-05T13:25:15.807Z,8.83
2018-12-05T13:27:43.933Z,8.07
2018-12-05T13:30:12.527Z,11.23
2018-12-05T13:32:41.343Z,6.33
2018-12-05T13:35:09.517Z,9.23
2018-12-05T13:37:37.649Z,7.93
2018-12-05T13:40:06.402Z,9.83
2018-12-05T13:42:41.253Z,7.60
2018-12-05T13:45:09.501Z,6.47
2018-12-05T13:47:37.627Z,8.70
2018-12-05T13:50:06.341Z,9.30
2018-12-05T13:52:34.605Z,9.47
2018-12-05T13:55:02.862Z,7.93
2018-12-05T13:57:31.060Z,5.43
2018-12-05T13:59:59.243Z,7.80
2018-12-05T14:02:27.366Z,7.17
2018-12-05T14:04:55.468Z,7.87
2018-12-05T14:07:23.744Z,6.77
2018-12-05T14:09:52.032Z,8.57
2018-12-05T14:12:25.755Z,8.63
2018-12-05T14:14:53.995Z,6.63
2018-12-05T14:17:22.573Z,4.70
2018-12-05T14:19:50.837Z,7.27
2018-12-05T14:22:19.033Z,8.77
2018-12-05T14:24:47.142Z,7.37
2018-12-05T14:27:15.334Z,9.67
2018-12-05T14:29:43.521Z,8.07
2018-12-05T14:32:11.716Z,4.93
2018-12-05T14:34:39.832Z,8.80
2018-12-05T14:37:07.965Z,8.53
2018-12-05T14:39:36.077Z,7.10
2018-12-05T14:42:04.357Z,6.37
2018-12-05T14:44:32.600Z,6.10
2018-12-05T14:47:00.880Z,5.53
2018-12-05T14:49:29.008Z,8.27
2018-12-05T14:51:57.203Z,7.03
2018-12-05T14:54:25.318Z,6.80
2018-12-05T14:56:53.429Z,6.60
2018-12-05T14:59:21.637Z,6.43
2018-12-05T15:01:49.760Z,5.23
2018-12-05T15:04:18.025Z,6.80
2018-12-05T15:06:46.154Z,10.07
2018-12-05T15:09:14.368Z,7.83
2018-12-05T15:11:42.563Z,7.17
2018-12-05T15:14:10.696Z,4.47
2018-12-05T15:16:38.969Z,6.13
2018-12-05T15:19:07.325Z,8.67
2018-12-05T15:21:35.581Z,5.90
2018-12-05T15:24:03.881Z,5.23
2018-12-05T15:26:32.052Z,9.97
2018-12-05T15:29:00.289Z,5.10
2018-12-05T15:31:28.413Z,4.93
2018-12-05T15:33:56.553Z,6.73
2018-12-05T15:36:24.652Z,8.70
2018-12-05T15:38:52.785Z,10.10
2018-12-05T15:41:20.902Z,8.03
2018-12-05T15:43:49.029Z,9.00
2018-12-05T15:46:17.135Z,5.57
2018-12-05T15:48:45.261Z,8.50
2018-12-05T15:51:13.374Z,6.20
2018-12-05T15:53:41.907Z,9.30
2018-12-05T15:56:10.160Z,9.70
2018-12-05T15:58:38.405Z,8.03
2018-12-05T16:01:06.585Z,5.70
2018-12-05T16:03:34.733Z,7.57
2018-12-05T16:06:02.863Z,7.97
2018-12-05T16:08:31.248Z,7.60
2018-12-05T16:10:59.498Z,8.30
2018-12-05T16:13:27.681Z,8.27
2018-12-05T16:15:55.879Z,5.87
2018-12-05T16:18:24.001Z,4.97
2018-12-05T16:20:52.561Z,8.00
2018-12-05T16:23:20.872Z,8.63
2018-12-05T16:25:49.333Z,11.80
2018-12-05T16:28:17.959Z,7.07
2018-12-05T16:30:46.600Z,7.40
2018-12-05T16:33:15.053Z,7.80
2018-12-05T16:35:43.235Z,6.90
2018-12-05T16:38:11.431Z,10.00
2018-12-05T16:40:39.561Z,7.13
2018-12-05T16:43:07.701Z,8.47
2018-12-05T16:45:35.896Z,7.17
2018-12-05T16:48:04.158Z,10.63
2018-12-05T16:50:32.273Z,8.23
2018-12-05T16:53:00.400Z,7.37
2018-12-05T16:55:28.573Z,7.40
2018-12-05T16:57:56.698Z,5.93
2018-12-05T17:00:24.974Z,10.30
2018-12-05T17:02:53.177Z,10.30
2018-12-05T17:05:21.439Z,8.40
2018-12-05T17:07:49.629Z,7.13
2018-12-05T17:10:17.844Z,7.20
2018-12-05T17:12:46.026Z,7.77
2018-12-05T17:15:14.196Z,8.60
2018-12-05T17:17:42.325Z,6.87
2018-12-05T17:20:10.528Z,6.77
2018-12-05T17:22:38.801Z,8.73
2018-12-05T17:25:07.053Z,10.23
2018-12-05T17:27:35.204Z,9.00
2018-12-05T17:30:03.452Z,11.03
2018-12-05T17:32:31.662Z,7.00
2018-12-05T17:34:59.853Z,6.57
2018-12-05T17:37:27.985Z,7.17
2018-12-05T17:39:56.188Z,7.27
2018-12-05T17:42:24.373Z,6.47
2018-12-05T17:44:52.532Z,9.33
2018-12-05T17:47:20.706Z,6.10
2018-12-05T17:49:48.817Z,7.60
2018-12-05T17:52:17.017Z,10.50
2018-12-05T17:54:45.202Z,9.77
2018-12-05T17:57:13.404Z,6.23
2018-12-05T17:59:41.587Z,7.00
2018-12-05T18:02:09.778Z,6.57
2018-12-05T18:04:37.946Z,6.80
2018-12-05T18:07:06.867Z,7.93
2018-12-05T18:09:35.239Z,6.57
2018-12-05T18:12:03.454Z,6.37
2018-12-05T18:14:31.636Z,6.83
2018-12-05T18:16:59.832Z,5.97
2018-12-05T18:19:28.065Z,7.37
2018-12-05T18:21:56.326Z,8.13
2018-12-05T18:24:24.473Z,9.70
2018-12-05T18:26:52.731Z,7.43
2018-12-05T18:29:20.917Z,5.27
2018-12-05T18:31:49.033Z,7.10
2018-12-05T18:34:17.220Z,9.77
2018-12-05T18:36:45.339Z,8.27
2018-12-05T18:39:13.541Z,9.40
2018-12-05T18:41:41.660Z,11.20
2018-12-05T18:44:09.934Z,7.77
2018-12-05T18:46:38.180Z,10.30
2018-12-05T18:49:06.443Z,7.73
2018-12-05T18:51:34.697Z,6.10
2018-12-05T18:54:02.881Z,7.90
2018-12-05T18:56:31.161Z,6.90
2018-12-05T18:58:59.426Z,8.00
2018-12-05T19:01:27.679Z,6.00
2018-12-05T19:03:55.884Z,6.27
2018-12-05T19:06:24.080Z,7.83
2018-12-05T19:08:52.223Z,6.17
2018-12-05T19:11:20.588Z,8.40
2018-12-05T19:13:54.199Z,7.23
2018-12-05T19:16:22.389Z,8.20
2018-12-05T19:18:50.532Z,4.93
2018-12-05T19:21:18.659Z,8.13
2018-12-05T19:23:47.226Z,8.77
2018-12-05T19:26:15.690Z,9.27
2018-12-05T19:28:43.992Z,6.27
2018-12-05T19:31:19.231Z,7.57
2018-12-05T19:33:42.376Z,10.90
2018-12-05T19:36:10.513Z,9.03
2018-12-05T19:38:38.713Z,10.17
2018-12-05T19:41:06.859Z,8.43
2018-12-05T19:43:35.157Z,8.33
2018-12-05T19:46:03.437Z,10.03
2018-12-05T19:48:31.709Z,10.03
2018-12-05T19:50:59.923Z,7.73
2018-12-05T19:53:28.048Z,10.63
2018-12-05T19:55:56.186Z,11.37
2018-12-05T19:58:24.448Z,9.47
2018-12-05T20:00:52.719Z,9.57
2018-12-05T20:03:20.909Z,10.80
2018-12-05T20:05:49.120Z,10.97
2018-12-05T20:08:17.313Z,12.43
2018-12-05T20:10:45.590Z,10.37
2018-12-05T20:13:13.801Z,14.13
2018-12-05T20:15:42.475Z,8.80
2018-12-05T20:18:11.108Z,7.57
2018-12-05T20:20:39.661Z,8.03
2018-12-05T20:23:08.240Z,9.50
2018-12-05T20:25:36.840Z,9.20
2018-12-05T20:28:05.332Z,9.53
2018-12-05T20:30:33.876Z,8.67
2018-12-05T20:33:02.420Z,10.60
2018-12-05T20:35:30.918Z,9.47
2018-12-05T20:37:59.498Z,10.47
2018-12-05T20:40:27.857Z,9.40
2018-12-05T20:42:56.406Z,11.13
2018-12-05T20:45:25.074Z,10.20
2018-12-05T20:47:53.656Z,11.80
2018-12-05T20:50:23.113Z,8.60
2018-12-05T20:52:51.678Z,11.20
2018-12-05T20:55:20.319Z,11.27
2018-12-05T20:57:49.146Z,11.07
2018-12-05T21:00:17.348Z,10.10
2018-12-05T21:02:45.888Z,10.50
2018-12-05T21:05:14.473Z,10.77
2018-12-05T21:07:43.012Z,10.73
2018-12-05T21:10:11.632Z,8.33
2018-12-05T21:12:40.217Z,11.50
2018-12-05T21:15:09.026Z,11.87
2018-12-05T21:17:37.548Z,12.23
2018-12-05T21:22:46.842Z,13.63
2018-12-05T21:25:10.166Z,13.67
2018-12-05T21:27:38.695Z,12.50
2018-12-05T21:30:07.688Z,13.17
2018-12-05T21:32:36.251Z,12.13
2018-12-05T21:35:05.012Z,12.70
2018-12-05T21:37:33.485Z,11.77
2018-12-05T21:40:02.057Z,11.93
2018-12-05T21:42:30.607Z,11.57
2018-12-05T21:44:59.148Z,12.97
2018-12-05T21:47:27.661Z,13.10
2018-12-05T21:49:56.229Z,12.33
2018-12-05T21:52:24.781Z,13.90
2018-12-05T21:55:01.960Z,13.40
2018-12-05T21:57:30.107Z,15.07
2018-12-05T21:59:58.339Z,14.97
2018-12-05T22:02:26.476Z,13.97
2018-12-05T22:04:54.632Z,14.83
2018-12-05T22:07:22.916Z,13.30
2018-12-05T22:09:51.152Z,15.80
2018-12-05T22:12:19.398Z,15.20
2018-12-05T22:14:48.280Z,17.47
2018-12-05T22:17:16.414Z,17.57
2018-12-05T22:19:44.560Z,14.83
2018-12-05T22:22:12.690Z,18.67
2018-12-05T22:24:40.892Z,15.13
2018-12-05T22:27:09.021Z,18.63
2018-12-05T22:29:37.149Z,15.43
2018-12-05T22:32:05.296Z,14.73
2018-12-05T22:34:33.504Z,13.87
2018-12-05T22:37:01.636Z,15.97
2018-12-05T22:39:29.768Z,16.73
2018-12-05T22:41:57.919Z,16.87
2018-12-05T22:44:26.069Z,14.83
2018-12-05T22:46:54.406Z,15.37
2018-12-05T22:49:22.538Z,14.90
2018-12-05T22:51:50.669Z,14.73
2018-12-05T22:54:18.959Z,14.97
2018-12-05T22:56:58.584Z,17.20
2018-12-05T22:59:28.188Z,15.60
2018-12-05T23:01:56.693Z,17.60
2018-12-05T23:04:24.952Z,15.23
2018-12-05T23:06:53.150Z,16.20
2018-12-05T23:09:21.306Z,17.33
2018-12-05T23:11:49.520Z,17.73
2018-12-05T23:14:17.710Z,16.90
2018-12-05T23:16:46.490Z,19.73
2018-12-05T23:19:15.402Z,18.10
2018-12-05T23:21:43.609Z,19.53
2018-12-05T23:24:11.801Z,16.53
2018-12-05T23:26:39.997Z,17.33
2018-12-05T23:29:08.201Z,18.37
2018-12-05T23:31:36.425Z,18.90
2018-12-05T23:34:04.681Z,19.43
2018-12-05T23:36:32.913Z,19.67
2018-12-05T23:39:01.176Z,20.20
2018-12-05T23:41:29.388Z,18.53
2018-12-05T23:43:57.517Z,20.97
2018-12-05T23:46:25.658Z,19.13
2018-12-05T23:48:53.776Z,20.67
2018-12-05T23:51:21.976Z,20.47
2018-12-05T23:53:50.104Z,20.77
2018-12-05T23:56:18.246Z,19.03
2018-12-05T23:58:46.444Z,21.93
